Aérodrome :
LOGIN :

S'inscrire | Disclaimer

   EN    FR    IT 

 










Légende :    VFR   VFR Marginal   IFR   IFR Intensif   IFR Très Intensif
Visi : 
Plafond : 
>= 8 km
>= 3000ft
5 à 8 km
1000 à 3000 ft
1500m à 5 km
500 à 1000 ft
800 à 1500m
200 à 500 ft
< 800m
< 200 ft
Symboles :   Orages  Brouillard  Fortes neiges  Fortes précipitations  Vent > 20 kt
SIGMETs :   Divers  Orages  Givrage  Turbulence  Onde Orograph.  Cendres Volcan.







- Altitude de l'aérodrome : 909 ft
- Code IATA : KSF


EDVK - Kassel Calden

DERNIER METAR :
  • 190950Z 28018KT 9999 FEW014 BKN019 05/02 Q1012

METARs EXPIRÉS :
  • 190920Z 27019KT 9999 SCT019 BKN034 05/02 Q1012
  • 190850Z 27013KT 9999 SCT018 BKN036 04/02 Q1012
  • 190820Z 27015KT 9999 FEW012 BKN016 04/02 Q1012
  • 190750Z 27013KT 9999 FEW012 BKN016 03/03 Q1012

TAF TAF EDVK
Valide du 19 à 09h jusqu'au 19 à 18h UTC


190800Z 1909/1918 27010G20KT 9999 FEW012 BKN020
TEMPO 1910/1917 29015G25KT SHRA BKN015TCU
Pas de NOTAMs connus pour ce terrain.



MET'MAP, la Météo Aéronautique d'un coup d'oeil ! - Copyright ORBIFLY Décembre 2007 - Disclaimer

ORBIFLY MET'MAP TEAM :

Programmation & Développement : Alexandra Zaïnal
Conception & Développement : Baudouin d'Aumeries
Co-Programmation & Développement : Marc-Olivier Méhu
Soutien technique & logistique : Manuel Goepfert

Contact : metmap@orbifly.com




SOURCES & CREDITS :

   NOAA